Time;durP1;ratioP1;P1;durP2;ratioP2;P2;SDS_P1;SDS_P2;PMS_P1;PMS_P2;Temp;Humidity;BMP_temperature;BMP_pressure;BME280_temperature;BME280_humidity;BME280_pressure;Samples;Min_cycle;Max_cycle;Signal;HPM_P1;HPM_P2
2023/07/05 00:03:07;;;;;;;18.52;13.52;;;;;;;17.12;58.68;100072.28;30808484;28;101799;-70
2023/07/05 00:18:08;;;;;;;18.70;11.93;;;;;;;16.77;59.70;100061.03;30841415;28;97356;-71
2023/07/05 00:33:08;;;;;;;17.60;12.38;;;;;;;16.51;60.57;100052.91;30853626;28;103599;-70
2023/07/05 00:48:13;;;;;;;22.00;12.20;;;;;;;16.20;61.81;100049.06;30851011;28;111623;-71
2023/07/05 01:03:20;;;;;;;20.83;11.73;;;;;;;16.05;62.66;100043.09;30854529;28;97363;-73
2023/07/05 01:18:42;;;;;;;22.73;11.73;;;;;;;15.93;63.28;100044.78;30870678;28;97380;-70
2023/07/05 01:33:53;;;;;;;22.37;10.97;;;;;;;15.78;63.94;100035.03;30870160;28;96864;-72
2023/07/05 01:49:16;;;;;;;19.33;10.60;;;;;;;15.61;64.42;100023.91;30868851;28;97008;-72
2023/07/05 02:04:17;;;;;;;18.17;11.33;;;;;;;15.42;65.06;100025.56;30867415;28;97475;-71
2023/07/05 02:19:18;;;;;;;23.17;12.10;;;;;;;15.21;66.20;100022.03;30864363;28;96814;-75
2023/07/05 02:34:19;;;;;;;24.08;12.38;;;;;;;14.97;66.75;100028.00;30864369;28;97004;-75
2023/07/05 02:49:19;;;;;;;17.70;9.73;;;;;;;14.85;67.32;100007.09;30861294;28;97043;-74
2023/07/05 03:04:20;;;;;;;20.60;10.90;;;;;;;14.68;68.31;100003.13;30861577;28;96863;-75
2023/07/05 03:19:20;;;;;;;21.20;12.27;;;;;;;14.68;68.95;100016.53;30858818;28;97426;-73
2023/07/05 03:34:20;;;;;;;23.40;12.25;;;;;;;14.77;69.62;100004.63;30856509;28;107266;-75
2023/07/05 03:49:21;;;;;;;21.50;12.88;;;;;;;15.04;69.88;99999.31;30855216;28;104502;-73
2023/07/05 04:04:21;;;;;;;30.10;14.48;;;;;;;15.30;70.19;99982.41;30853715;28;97318;-72
2023/07/05 04:19:21;;;;;;;25.63;13.30;;;;;;;15.63;69.80;99989.59;30852919;28;96990;-68
2023/07/05 04:34:22;;;;;;;27.55;14.13;;;;;;;16.01;69.53;99982.75;30850459;28;114523;-68
2023/07/05 04:49:22;;;;;;;26.77;13.18;;;;;;;16.40;69.37;99970.19;30851134;28;96931;-67
2023/07/05 05:04:22;;;;;;;27.30;14.52;;;;;;;17.03;68.81;99957.84;30848909;28;96821;-69
2023/07/05 05:19:23;;;;;;;25.35;13.88;;;;;;;17.68;67.30;99949.41;30849342;28;96682;-68
2023/07/05 05:34:27;;;;;;;24.23;13.75;;;;;;;18.35;65.82;99940.56;30848533;28;97330;-68
2023/07/05 05:49:27;;;;;;;21.60;13.43;;;;;;;18.83;64.21;99954.25;30851677;28;96829;-67
2023/07/05 06:04:27;;;;;;;26.35;14.02;;;;;;;19.53;62.32;99953.56;30867918;28;96860;-68
2023/07/05 06:19:28;;;;;;;25.23;13.55;;;;;;;20.17;60.23;99931.13;30864097;28;97100;-69
2023/07/05 06:34:28;;;;;;;23.73;13.70;;;;;;;20.73;57.89;99944.09;30861434;28;113373;-68
2023/07/05 06:49:28;;;;;;;20.70;12.07;;;;;;;21.18;57.74;99931.59;30859482;28;96687;-68
2023/07/05 07:04:29;;;;;;;18.43;10.93;;;;;;;21.62;56.22;99916.28;30859356;28;104651;-66
2023/07/05 07:19:29;;;;;;;18.73;10.40;;;;;;;22.46;53.77;99899.94;30857457;28;96771;-68
2023/07/05 07:34:31;;;;;;;15.15;9.77;;;;;;;23.04;52.46;99877.59;30854715;28;112549;-69
2023/07/05 07:49:31;;;;;;;17.50;9.03;;;;;;;23.87;50.97;99874.28;30856784;28;98534;-69
2023/07/05 08:04:31;;;;;;;11.73;7.65;;;;;;;24.83;48.81;99873.94;30855304;28;97151;-70
2023/07/05 08:19:32;;;;;;;12.10;7.55;;;;;;;26.03;47.22;99859.75;30853543;28;110091;-69
2023/07/05 08:34:32;;;;;;;13.40;5.05;;;;;;;26.65;44.10;99846.47;30852764;28;107144;-70
2023/07/05 08:49:39;;;;;;;8.88;4.55;;;;;;;27.02;41.08;99836.91;30851712;28;107800;-69
2023/07/05 09:04:39;;;;;;;12.27;5.13;;;;;;;27.96;39.43;99828.41;30849456;28;96691;-69
2023/07/05 09:19:56;;;;;;;7.90;5.00;;;;;;;28.59;36.90;99808.00;30849605;28;96744;-69
2023/07/05 09:34:59;;;;;;;9.63;4.43;;;;;;;29.01;33.76;99808.94;30870407;28;96645;-70
2023/07/05 09:49:59;;;;;;;8.07;4.00;;;;;;;30.13;31.11;99797.88;30869845;28;97131;-70
2023/07/05 10:05:16;;;;;;;6.65;3.67;;;;;;;31.60;28.43;99793.44;30867416;28;110717;-70
2023/07/05 10:20:26;;;;;;;;;;;;;;;32.63;27.94;99761.81;30866233;28;97311;-69
2023/07/05 10:35:29;;;;;;;8.53;3.90;;;;;;;32.63;27.13;99750.78;30865158;28;97913;-72
2023/07/05 10:50:31;;;;;;;7.30;4.17;;;;;;;32.61;27.83;99731.81;30861703;28;96696;-72
2023/07/05 11:05:41;;;;;;;5.73;3.40;;;;;;;31.40;29.23;99726.06;30848060;28;97123;-72
2023/07/05 11:20:42;;;;;;;8.30;3.63;;;;;;;31.59;30.06;99712.03;30848714;28;96756;-74
2023/07/05 11:35:49;;;;;;;7.13;4.30;;;;;;;31.11;30.58;99675.19;30846290;28;98743;-73
2023/07/05 11:50:49;;;;;;;3.83;2.00;;;;;;;30.64;31.35;99680.38;30786930;28;99200;-71
2023/07/05 12:05:56;;;;;;;8.95;2.70;;;;;;;29.66;34.59;99669.91;30826978;28;97874;-70
2023/07/05 12:20:58;;;;;;;3.60;2.07;;;;;;;28.71;37.71;99681.50;30850444;28;99254;-73
2023/07/05 12:36:13;;;;;;;7.13;2.47;;;;;;;29.11;36.23;99670.81;30825431;28;97897;-71
2023/07/05 12:51:14;;;;;;;6.03;2.53;;;;;;;28.54;36.32;99679.31;30810775;28;97761;-71
2023/07/05 13:06:18;;;;;;;9.70;2.87;;;;;;;27.57;38.57;99689.94;30836910;28;97589;-71
2023/07/05 13:21:18;;;;;;;6.53;2.60;;;;;;;26.14;43.76;99692.09;30844868;28;98143;-72
2023/07/05 13:36:19;;;;;;;3.92;2.40;;;;;;;25.27;46.79;99693.44;30858856;28;97224;-71
2023/07/05 13:51:27;;;;;;;6.90;2.50;;;;;;;24.72;49.37;99698.03;30857074;28;97231;-72
2023/07/05 14:06:27;;;;;;;4.77;2.37;;;;;;;24.66;49.64;99684.41;30854821;28;97216;-72
2023/07/05 14:21:30;;;;;;;6.80;2.42;;;;;;;26.28;48.82;99651.28;30848606;28;97524;-71
2023/07/05 14:36:31;;;;;;;5.90;2.30;;;;;;;27.26;47.11;99631.03;30813870;28;98462;-72
2023/07/05 14:51:32;;;;;;;7.20;2.63;;;;;;;27.02;46.98;99650.19;30826732;28;97918;-70
2023/07/05 15:06:32;;;;;;;5.40;2.53;;;;;;;26.17;48.06;99693.44;30827522;28;102166;-69
2023/07/05 15:21:32;;;;;;;6.53;2.88;;;;;;;26.03;49.24;99666.00;30824329;28;114322;-68
2023/07/05 15:36:32;;;;;;;5.68;2.50;;;;;;;25.49;49.81;99700.44;30819583;28;103627;-73
2023/07/05 15:51:34;;;;;;;9.43;3.00;;;;;;;24.38;51.65;99709.47;30817981;28;97264;-72
2023/07/05 16:06:34;;;;;;;6.60;2.90;;;;;;;23.63;54.11;99691.72;30829083;28;112960;-71
2023/07/05 16:21:36;;;;;;;9.57;3.08;;;;;;;23.14;55.57;99692.94;30849110;28;109818;-71
2023/07/05 16:36:36;;;;;;;6.07;2.93;;;;;;;22.87;57.13;99742.78;30851131;28;96803;-70
2023/07/05 16:51:37;;;;;;;3.45;2.40;;;;;;;22.29;58.79;99727.19;30849914;28;97050;-71
2023/07/05 17:06:40;;;;;;;6.57;3.55;;;;;;;21.45;60.83;99720.38;30850219;28;104158;-71
2023/07/05 17:21:40;;;;;;;4.30;2.40;;;;;;;21.20;61.95;99705.47;30848767;28;96772;-71
2023/07/05 17:36:41;;;;;;;6.00;2.33;;;;;;;21.31;61.23;99695.56;30849525;28;96871;-71
2023/07/05 17:51:41;;;;;;;4.00;2.00;;;;;;;21.31;61.06;99701.00;30861979;28;96752;-70
2023/07/05 18:06:44;;;;;;;4.13;2.13;;;;;;;21.11;60.46;99731.34;30866082;28;96675;-70
2023/07/05 18:21:45;;;;;;;8.27;1.93;;;;;;;20.77;60.91;99758.50;30865532;28;96632;-70
2023/07/05 18:36:45;;;;;;;6.53;2.22;;;;;;;20.48;61.20;99785.63;30863375;28;97067;-72
2023/07/05 18:51:45;;;;;;;3.03;1.60;;;;;;;20.12;61.60;99807.47;30864022;28;98438;-71
2023/07/05 19:06:45;;;;;;;11.47;2.20;;;;;;;19.73;62.41;99849.66;30859859;28;111735;-71
2023/07/05 19:21:46;;;;;;;7.60;4.10;;;;;;;19.20;64.97;99881.19;30859653;28;96858;-71
2023/07/05 19:36:46;;;;;;;7.43;2.92;;;;;;;19.06;67.19;99904.91;30857672;28;106369;-70
2023/07/05 19:51:47;;;;;;;6.32;3.22;;;;;;;18.77;68.71;99907.41;30857076;28;97105;-71
2023/07/05 20:06:47;;;;;;;5.22;2.90;;;;;;;18.37;70.48;99932.25;30853915;28;96646;-70
2023/07/05 20:21:48;;;;;;;5.97;3.50;;;;;;;18.19;70.84;99944.75;30852884;28;97887;-70
2023/07/05 20:36:48;;;;;;;6.13;3.38;;;;;;;17.71;72.69;99975.91;30853115;28;100752;-71
2023/07/05 20:51:51;;;;;;;7.55;2.97;;;;;;;17.46;73.26;99981.31;30853073;28;96800;-70
2023/07/05 21:06:53;;;;;;;5.80;3.03;;;;;;;17.48;73.96;99981.09;30848782;28;97537;-70
2023/07/05 21:21:53;;;;;;;5.57;2.50;;;;;;;17.99;74.00;100003.41;30845392;28;96653;-70
2023/07/05 21:36:54;;;;;;;5.93;2.90;;;;;;;18.17;72.68;100016.09;30853618;28;97517;-68
2023/07/05 21:51:54;;;;;;;5.90;3.20;;;;;;;18.04;71.52;100049.41;30918753;28;105394;-68
2023/07/05 22:06:57;;;;;;;6.32;3.00;;;;;;;18.20;70.54;100070.38;30768629;28;96977;-69
2023/07/05 22:21:58;;;;;;;7.20;3.00;;;;;;;18.69;69.10;100088.53;30849100;28;96797;-69
2023/07/05 22:36:58;;;;;;;4.33;2.77;;;;;;;18.90;66.69;100093.47;30928814;28;96723;-70
2023/07/05 22:51:59;;;;;;;6.95;3.08;;;;;;;19.28;64.54;100092.31;30925959;28;96791;-71
2023/07/05 23:06:59;;;;;;;6.25;3.10;;;;;;;19.32;61.78;100097.28;30918742;28;96890;-68
2023/07/05 23:22:00;;;;;;;8.43;2.88;;;;;;;19.24;60.30;100101.91;30919803;28;96747;-69
2023/07/05 23:37:00;;;;;;;6.03;3.05;;;;;;;19.10;59.02;100111.28;30983229;28;106352;-69
2023/07/05 23:52:00;;;;;;;6.03;2.50;;;;;;;18.89;57.48;100121.50;30983210;28;97436;-70
